Latest Coastal Weather Observations for Christmas Island

IDW60701

Issued at 9:32 am WST Sunday 31 July 2016 (issued every 10 minutes, with the page automatically refreshed every 10 minutes)

About coastal observations | Map of coastal stations | Coastal observations for WA | Marine services | Other Formats
Station Details ID: 200790 Name: CHRISTMAS ISLAND AERO Lat: -10.45 Lon: 105.69 Height: 261.0 m
Data from the previous 72 hours. | See also: Recent months at Christmas Island
Date/Time
WST
Temp
°C
Wind Pressure Rain since
9am
mm
Weather Cloud Vis
km
Sea
Height
m
Swell
Dir  Spd
kts
Gust
kts
hPa Trend Height
m
Period
s
Dir
31/09:30am 23.1 SE 15 23 1015.1 - 3.0 - Partly cloudy 5 - - - -
31/09:24am 23.0 SE 14 21 1015.0 - 3.0 - Partly cloudy 4 - - - -
31/09:20am 23.2 SE 12 20 1015.0 - 1.4 - Partly cloudy 6 - - - -
31/09:00am 23.4 SE 11 16 1014.8 - 0.8 - Partly cloudy 10 - - - -
31/08:55am 23.4 SE 11 17 1014.6 - 0.8 - Partly cloudy 10 - - - -
31/08:35am 23.2 SE 16 26 1014.4 - 0.8 - Partly cloudy 5 - - - -
31/08:33am 23.2 SE 15 26 1014.4 - 0.6 - Partly cloudy 8 - - - -
31/08:30am 23.6 SE 13 19 1014.3 - 0.4 - Partly cloudy 10 - - - -
31/08:00am 24.6 SE 13 23 1013.7 - 0.0 - Partly cloudy 10 - - - -
31/07:30am 24.6 SE 12 18 1013.5 - 0.0 - Partly cloudy 10 - - - -
31/07:00am 24.4 SE 11 18 1011.9 - 0.0 - Cloudy 10 - - - -
31/06:30am 24.5 SE 11 16 1013.2 - 0.0 - Partly cloudy 10 - - - -
31/06:00am 24.3 SE 11 20 1013.1 - 0.0 - Partly cloudy 10 - - - -
31/05:30am 24.1 SE 10 15 1012.9 - 0.0 - Partly cloudy 10 - - - -
31/05:00am 24.4 SE 10 15 1013.0 - 0.0 - Partly cloudy 10 - - - -
31/04:30am 24.1 SE 10 16 1013.1 - 0.0 - Partly cloudy 10 - - - -
31/04:00am 24.3 SE 12 18 1011.8 - 0.0 - Mostly clear 10 - - - -
31/03:30am 24.6 SE 11 17 1013.6 - 0.0 - Partly cloudy 10 - - - -
31/03:00am 24.6 SE 12 18 1013.8 - 0.0 - Partly cloudy 10 - - - -
31/02:30am 24.8 SE 11 17 1014.0 - 0.0 - Partly cloudy 10 - - - -
31/02:00am 24.9 SE 13 19 1014.3 - 0.0 - Partly cloudy 10 - - - -
31/01:30am 24.9 SE 13 17 1014.5 - 0.0 - Partly cloudy 10 - - - -
31/01:00am 24.9 SE 13 19 1013.3 - 0.0 - Cloudy 10 - - - -
31/12:30am 25.1 SE 13 21 1014.8 - 0.0 - Partly cloudy 10 - - - -
31/12:00am 25.2 SE 14 20 1014.9 - 0.0 - Partly cloudy 10 - - - -
 
Date/Time
WST
Temp
°C
Wind Pressure Rain since
9am
mm
Weather Cloud Vis
km
Sea
Height
m
Swell
Dir  Spd
kts
Gust
kts
hPa Trend Height
m
Period
s
Dir
30/11:30pm 25.2 SE 15 23 1014.7 - 0.0 - Partly cloudy 10 - - - -
30/11:00pm 25.2 SE 15 23 1014.7 - 0.0 - Partly cloudy 10 - - - -
30/10:30pm 25.1 SE 12 19 1014.6 - 0.0 - Partly cloudy 10 - - - -
30/10:00pm 25.0 SE 13 23 1013.0 - 0.0 - Mostly clear 10 - - - -
30/09:30pm 25.1 SE 13 20 1014.3 - 0.0 - Partly cloudy 10 - - - -
30/09:00pm 25.2 SE 13 21 1014.2 - 0.0 - Partly cloudy 10 - - - -
30/08:30pm 25.2 SE 12 19 1014.0 - 0.0 - Partly cloudy 10 - - - -
30/08:00pm 25.3 SE 12 19 1013.6 - 0.0 - Partly cloudy 10 - - - -
30/07:30pm 25.5 SE 15 23 1013.3 - 0.0 - Partly cloudy 10 - - - -
30/07:00pm 25.3 SE 13 19 1011.5 - 0.0 - Cloudy 10 - - - -
30/06:30pm 25.5 SE 13 20 1012.6 - 0.0 - Partly cloudy 10 - - - -
30/06:00pm 25.8 ESE 13 18 1012.4 - 0.0 - Partly cloudy 10 - - - -
30/05:30pm 25.9 ESE 15 23 1012.2 - 0.0 - Partly cloudy 10 - - - -
30/05:00pm 25.9 SE 14 20 1012.2 - 0.0 - Partly cloudy 10 - - - -
30/04:30pm 26.3 SE 14 20 1012.3 - 0.0 - Partly cloudy 10 - - - -
30/04:00pm 26.5 SE 15 23 1010.9 - 0.0 - Partly cloudy 10 - - - -
30/03:30pm 26.7 ESE 14 20 1012.7 - 0.0 - Partly cloudy 10 - - - -
30/03:00pm 26.6 SE 15 24 1012.9 - 0.0 - Partly cloudy 10 - - - -
30/02:53pm 26.5 ESE 15 25 1012.9 - 0.0 - Partly cloudy 10 - - - -
30/02:30pm 26.6 SE 15 21 1013.0 - 0.0 - Partly cloudy 10 - - - -
30/02:00pm 27.0 SE 16 21 1013.4 - 0.0 - Partly cloudy 10 - - - -
30/01:30pm 26.5 SE 15 22 1013.6 - 0.0 - Partly cloudy 10 - - - -
30/01:00pm 26.9 ESE 17 23 1012.5 - 0.0 - Cloudy 10 - - - -
30/12:30pm 26.6 SE 16 22 1014.4 - 0.0 - Partly cloudy 10 - - - -
30/12:07pm 26.6 SE 15 26 1014.5 - 0.0 - Partly cloudy 10 - - - -
30/12:00pm 26.1 SE 15 22 1014.7 - 0.0 - Partly cloudy 10 - - - -
30/11:37am 26.1 SE 15 26 1014.9 - 0.0 - Partly cloudy 10 - - - -
30/11:30am 26.1 SE 16 25 1014.9 - 0.0 - Partly cloudy 10 - - - -
30/11:09am 26.2 SE 16 26 1015.0 - 0.0 - Partly cloudy 10 - - - -
30/11:00am 26.2 SE 17 26 1015.1 - 0.0 - Partly cloudy 10 - - - -
30/10:30am 26.6 SE 16 23 1015.1 - 0.0 - Partly cloudy 10 - - - -
30/10:00am 26.3 SE 15 25 1013.8 - 5.0 - Cloudy 10 - - - -
30/09:35am 25.5 SE 15 25 1015.2 - 5.0 - Partly cloudy 10 - - - -
30/09:30am 25.7 SE 14 21 1015.2 - 5.0 - Partly cloudy 10 - - - -
30/09:00am 25.0 SE 15 24 1015.0 - 5.0 - Partly cloudy 10 - - - -
30/08:58am 25.0 SE 15 24 1015.0 - 5.0 - Partly cloudy 10 - - - -
30/08:30am 25.0 SE 15 23 1014.5 - 4.8 - Partly cloudy 10 - - - -
30/08:25am 25.0 SE 15 23 1014.3 - 4.8 - Partly cloudy 10 - - - -
30/08:00am 25.1 SE 15 22 1014.2 - 4.8 - Partly cloudy 10 - - - -
30/07:30am 24.9 SE 14 21 1014.0 - 4.8 - Partly cloudy 10 - - - -
30/07:00am 25.0 SE 14 19 1012.1 - 4.8 - Partly cloudy 10 - - - -
30/06:30am 25.0 SE 15 22 1013.3 - 4.8 - Partly cloudy 10 - - - -
30/06:00am 25.1 ESE 14 19 1013.2 - 4.8 - Partly cloudy 10 - - - -
30/05:30am 24.8 SE 12 16 1013.3 - 4.8 - Partly cloudy 10 - - - -
30/05:00am 25.0 ESE 13 17 1013.3 - 4.8 - Partly cloudy 10 - - - -
30/04:30am 25.0 ESE 13 19 1013.2 - 4.8 - Partly cloudy 10 - - - -
30/04:00am 24.0 SE 10 - 1012.1 - 5.0 - Cloudy - - - - -
30/01:00am 25.4 SE 12 18 1013.2 - 0.0 - Cloudy 10 - - - -
30/12:30am 25.3 SE 13 19 1014.8 - 0.0 - Partly cloudy 10 - - - -
30/12:00am 25.4 SE 13 21 1014.8 - 0.0 - Partly cloudy 10 - - - -
 
Date/Time
WST
Temp
°C
Wind Pressure Rain since
9am
mm
Weather Cloud Vis
km
Sea
Height
m
Swell
Dir  Spd
kts
Gust
kts
hPa Trend Height
m
Period
s
Dir
29/11:30pm 25.5 SE 15 26 1014.9 - 0.0 - Partly cloudy 10 - - - -
29/11:23pm 25.4 SE 15 26 1014.8 - 0.0 - Partly cloudy 10 - - - -
29/11:00pm 25.3 SE 14 20 1014.8 - 0.0 - Partly cloudy 10 - - - -
29/10:30pm 25.4 SE 14 20 1014.9 - 0.0 - Partly cloudy 10 - - - -
29/10:00pm 25.5 SE 13 20 1013.2 - 0.0 - Cloudy 10 - - - -
29/09:30pm 25.6 SE 13 19 1014.5 - 0.0 - Partly cloudy 10 - - - -
29/09:00pm 25.5 SE 11 16 1014.4 - 0.0 - Partly cloudy 10 - - - -
29/05:30pm 25.9 SE 11 16 1012.4 - 0.0 - Partly cloudy 10 - - - -
29/05:00pm 26.1 SE 12 18 1012.1 - 0.0 - Partly cloudy 10 - - - -
29/04:30pm 26.1 SE 13 20 1011.8 - 0.0 - Partly cloudy 10 - - - -
29/04:00pm 26.0 SE 12 17 1010.6 - 0.0 - Cloudy 10 - - - -
29/03:30pm 26.4 ESE 12 19 1012.2 - 0.0 - Partly cloudy 10 - - - -
29/03:00pm 27.1 ESE 13 18 1012.3 - 0.0 - Partly cloudy 10 - - - -
29/02:00pm 27.2 SE 12 17 1013.1 - 0.0 - Partly cloudy 10 - - - -
29/01:30pm 26.7 ESE 13 19 1013.5 - 0.0 - Partly cloudy 10 - - - -
29/01:00pm 26.5 SE 13 19 1012.4 - 0.0 - Cloudy 10 - - - -
29/12:30pm 27.3 ESE 13 19 1014.2 - 0.0 - Partly cloudy 10 - - - -
29/12:00pm 26.6 ESE 12 17 1014.6 - 0.0 - Partly cloudy 10 - - - -
29/11:30am 27.1 ESE 13 19 1014.9 - 0.0 - Partly cloudy 10 - - - -
29/08:00am 25.6 E 13 20 1014.7 - 0.2 - Partly cloudy 10 - - - -
29/07:30am 25.1 ESE 13 20 1014.3 - 0.0 - Cloudy 10 - - - -
29/07:13am 25.5 SE 13 18 1014.1 - 0.0 - Cloudy 10 - - - -
29/07:03am 25.4 SE 11 17 1014.1 - 0.0 - Partly cloudy 10 - - - -
29/07:00am 25.3 SE 11 17 1012.7 - 0.0 - Cloudy 10 - - - -
29/06:30am 25.2 ESE 12 17 1013.8 - 0.0 - Partly cloudy 10 - - - -
29/06:00am 25.1 ESE 13 19 1013.4 - 0.0 - Partly cloudy 10 - - - -
29/05:30am 25.1 ESE 13 18 1013.3 - 0.0 - Partly cloudy 10 - - - -
29/05:00am 25.2 ESE 13 19 1013.2 - 0.0 - Partly cloudy 10 - - - -
29/04:30am 25.2 ESE 12 17 1013.3 - 0.0 - Partly cloudy 10 - - - -
29/04:00am 25.1 ESE 11 17 1012.0 - 0.0 - Partly cloudy 10 - - - -
29/03:30am 25.1 ESE 13 20 1013.3 - 0.0 - Partly cloudy 10 - - - -
29/03:00am 25.0 ESE 14 19 1013.3 - 0.0 - Partly cloudy 10 - - - -
29/02:30am 25.1 ESE 13 19 1013.6 - 0.0 - Partly cloudy 10 - - - -
29/02:00am 25.2 ESE 13 19 1013.6 - 0.0 - Partly cloudy 10 - - - -
29/01:30am 25.2 ESE 12 18 1014.0 - 0.0 - - 10 - - - -
29/01:00am 25.2 ESE 13 18 1012.8 - 0.0 - Partly cloudy 10 - - - -
29/12:30am 25.2 ESE 13 19 1014.5 - 0.0 - Partly cloudy 10 - - - -
29/12:00am 25.4 ESE 13 17 1014.5 - 0.0 - Partly cloudy 10 - - - -
 
Date/Time
WST
Temp
°C
Wind Pressure Rain since
9am
mm
Weather Cloud Vis
km
Sea
Height
m
Swell
Dir  Spd
kts
Gust
kts
hPa Trend Height
m
Period
s
Dir
28/11:30pm 25.3 ESE 13 19 1014.6 - 0.0 - Partly cloudy 10 - - - -
28/11:00pm 25.5 ESE 13 21 1014.8 - 0.0 - Partly cloudy 10 - - - -
28/10:30pm 25.5 ESE 13 19 1014.9 - 0.0 - Partly cloudy 10 - - - -
28/10:00pm 25.5 ESE 14 20 1013.2 - 0.0 - Mostly cloudy 10 - - - -
28/09:30pm 25.4 ESE 15 19 1014.3 - 0.0 - Partly cloudy 10 - - - -
28/09:00pm 25.5 ESE 15 21 1014.2 - 0.0 - Partly cloudy 10 - - - -
28/08:30pm 25.5 ESE 15 22 1013.8 - 0.0 - Partly cloudy 10 - - - -
28/08:00pm 25.6 ESE 14 23 1013.6 - 0.0 - Partly cloudy 10 - - - -
28/07:30pm 25.8 ESE 14 20 1013.4 - 0.0 - Partly cloudy 10 - - - -
28/07:00pm 25.7 ESE 13 19 1011.8 - 0.0 - Cloudy 10 - - - -
28/06:30pm 25.8 ESE 13 19 1013.0 - 0.0 - Partly cloudy 10 - - - -
28/06:00pm 26.0 ESE 13 21 1012.7 - 0.0 - Partly cloudy 10 - - - -
28/05:30pm 26.0 ESE 14 20 1012.3 - 0.0 - Partly cloudy 10 - - - -
28/05:00pm 26.2 ESE 14 20 1011.9 - 0.0 - Partly cloudy 10 - - - -
28/04:30pm 26.7 ESE 14 20 1011.9 - 0.0 - Partly cloudy 10 - - - -
28/04:00pm 26.9 ESE 13 17 1010.4 - 0.0 - Partly cloudy 10 - - - -
28/03:30pm 27.0 ESE 14 21 1012.1 - 0.0 - Partly cloudy 10 - - - -
28/03:00pm 27.1 ESE 13 20 1012.4 - 0.0 - Partly cloudy 10 - - - -
28/02:30pm 26.7 ESE 13 19 1012.7 - 0.0 - Partly cloudy 10 - - - -
28/02:00pm 26.4 ESE 14 20 1013.0 - 0.0 - Partly cloudy 10 - - - -
28/01:30pm 26.6 ESE 14 19 1013.3 - 0.0 - Partly cloudy 10 - - - -
28/01:00pm 26.6 ESE 15 20 1012.1 - 0.0 - Cloudy 10 - - - -
28/12:30pm 26.6 ESE 15 22 1013.9 - 0.0 - Partly cloudy 10 - - - -
28/12:00pm 26.5 ESE 14 21 1014.2 - 0.0 - Partly cloudy 10 - - - -
28/11:30am 26.6 ESE 15 21 1014.4 - 0.0 - Partly cloudy 10 - - - -
28/11:00am 26.9 ESE 14 19 1014.8 - 0.0 - Partly cloudy 10 - - - -

Other Formats:

Comma delimited format used in spreadsheet applications
http://www.bom.gov.au/fwo/IDW60701/IDW60701.96995.axf

JavaScript Object Notation format (JSON) in row-major order
http://www.bom.gov.au/fwo/IDW60701/IDW60701.96995.json